Time;durP1;ratioP1;P1;durP2;ratioP2;P2;SDS_P1;SDS_P2;PMS_P1;PMS_P2;Temp;Humidity;BMP_temperature;BMP_pressure;BME280_temperature;BME280_humidity;BME280_pressure;Samples;Min_cycle;Max_cycle;Signal;HPM_P1;HPM_P2
2024/01/12 00:01:36;;;;;;;61.87;24.77;;;-0.90;99.90;;;;;;4918554;29;20135;-94
2024/01/12 00:04:23;;;;;;;69.00;25.13;;;0.10;99.90;;;;;;4918602;29;20048;-94
2024/01/12 00:06:52;;;;;;;68.83;24.23;;;-0.60;99.90;;;;;;4919112;29;20048;-92
2024/01/12 00:09:20;;;;;;;75.00;24.97;;;-0.60;99.90;;;;;;4919209;29;20150;-94
2024/01/12 00:11:49;;;;;;;69.73;24.93;;;-0.60;99.90;;;;;;4919538;29;20079;-94
2024/01/12 00:14:15;;;;;;;67.37;23.20;;;-0.50;99.90;;;;;;4918377;29;20086;-93
2024/01/12 00:16:47;;;;;;;74.90;25.50;;;-0.40;99.90;;;;;;4919218;29;20075;-93
2024/01/12 00:19:14;;;;;;;72.43;25.97;;;-1.10;99.90;;;;;;4919059;29;20066;-94
2024/01/12 00:21:42;;;;;;;73.17;25.17;;;0.30;99.90;;;;;;4905228;29;20381;-94
2024/01/12 00:24:08;;;;;;;71.77;24.67;;;-0.30;99.90;;;;;;4969634;23;20071;-93
2024/01/12 00:26:34;;;;;;;71.73;26.07;;;0.50;99.90;;;;;;4917938;29;20055;-93
2024/01/12 00:28:59;;;;;;;68.17;25.23;;;-0.70;99.90;;;;;;4914816;29;20048;-94
2024/01/12 00:31:25;;;;;;;68.63;25.83;;;-1.10;99.90;;;;;;4916550;29;20052;-94
2024/01/12 00:33:52;;;;;;;71.03;25.07;;;0.20;99.90;;;;;;4915862;29;20101;-93
2024/01/12 00:36:23;;;;;;;67.03;24.93;;;-1.30;99.90;;;;;;4914963;29;20040;-93
2024/01/12 00:38:49;;;;;;;74.97;25.37;;;-1.00;99.90;;;;;;4915992;29;20143;-93
2024/01/12 00:41:15;;;;;;;68.63;25.37;;;-0.20;99.90;;;;;;4915316;29;20123;-93
2024/01/12 00:43:59;;;;;;;65.83;25.33;;;-0.60;99.90;;;;;;4917732;29;20051;-93
2024/01/12 00:46:25;;;;;;;64.40;24.10;;;-0.80;99.90;;;;;;4916681;29;20445;-93
2024/01/12 00:48:51;;;;;;;78.53;25.13;;;0.00;99.90;;;;;;4915466;29;20192;-93
2024/01/12 00:51:19;;;;;;;68.47;23.87;;;-1.00;99.90;;;;;;4915636;29;20050;-93
2024/01/12 00:53:45;;;;;;;71.30;23.90;;;0.00;99.90;;;;;;4911358;29;20504;-93
2024/01/12 00:56:11;;;;;;;68.73;24.40;;;-1.00;99.90;;;;;;4933944;29;20083;-92
2024/01/12 00:58:49;;;;;;;63.10;24.47;;;-0.60;99.90;;;;;;4918668;29;20048;-94
2024/01/12 01:01:33;;;;;;;81.30;26.37;;;-0.90;99.90;;;;;;5153545;23;20075;-94
2024/01/12 01:04:02;;;;;;;69.32;25.30;;;0.80;99.90;;;;;;4895634;29;20064;-94
2024/01/12 01:06:36;;;;;;;62.90;24.63;;;1.00;99.90;;;;;;4897835;29;20196;-94
2024/01/12 01:09:02;;;;;;;66.37;25.00;;;-0.50;99.90;;;;;;4899640;29;20064;-94
2024/01/12 01:11:28;;;;;;;68.40;23.97;;;-0.70;99.90;;;;;;4899339;29;20052;-94
2024/01/12 01:13:53;;;;;;;66.80;24.73;;;-0.50;99.90;;;;;;4899652;29;20067;-93
2024/01/12 01:16:20;;;;;;;69.13;24.07;;;-0.70;99.90;;;;;;4902824;29;20139;-93
2024/01/12 01:18:46;;;;;;;65.13;24.17;;;-0.60;99.90;;;;;;4902907;29;20056;-94
2024/01/12 01:21:12;;;;;;;57.93;23.17;;;-0.80;99.90;;;;;;4903009;29;20058;-94
2024/01/12 01:23:40;;;;;;;70.10;24.27;;;1.80;99.90;;;;;;4903553;29;20107;-94
2024/01/12 01:26:06;;;;;;;64.83;24.07;;;-0.50;99.90;;;;;;4902924;29;20445;-94
2024/01/12 01:28:32;;;;;;;60.77;22.17;;;-0.60;99.90;;;;;;4902996;29;20056;-94
2024/01/12 01:31:00;;;;;;;64.23;23.13;;;1.10;99.90;;;;;;4903207;29;20457;-94
2024/01/12 01:33:29;;;;;;;65.33;23.40;;;0.30;99.90;;;;;;4902500;29;20138;-93
2024/01/12 01:35:55;;;;;;;63.00;22.93;;;0.50;99.90;;;;;;4902730;29;20556;-94
2024/01/12 01:38:23;;;;;;;59.20;21.90;;;1.50;99.90;;;;;;4902345;29;20044;-92
2024/01/12 01:40:49;;;;;;;61.83;22.40;;;-0.30;99.90;;;;;;4902360;29;20135;-93
2024/01/12 01:43:33;;;;;;;56.80;21.87;;;-0.40;99.90;;;;;;4902377;29;20131;-93
2024/01/12 01:45:59;;;;;;;53.17;20.63;;;1.30;99.90;;;;;;4901912;29;20396;-94
2024/01/12 01:48:29;;;;;;;52.33;20.07;;;0.00;99.90;;;;;;5004016;23;20064;-93
2024/01/12 01:51:04;;;;;;;45.57;18.87;;;-0.20;99.90;;;;;;4900665;29;20088;-93
2024/01/12 01:54:33;;;;;;;46.53;19.00;;;0.30;99.90;;;;;;4924287;23;20130;-93
2024/01/12 01:57:02;;;;;;;47.33;17.20;;;1.60;99.90;;;;;;4898702;29;20044;-93
2024/01/12 01:59:28;;;;;;;49.73;18.00;;;0.20;99.90;;;;;;4921651;23;20060;-93
2024/01/12 02:01:54;;;;;;;47.30;16.90;;;0.20;99.90;;;;;;4921645;29;20179;-94
2024/01/12 02:04:20;;;;;;;44.30;16.50;;;0.20;99.90;;;;;;4921151;29;20058;-93
2024/01/12 02:06:47;;;;;;;39.17;15.77;;;0.20;99.90;;;;;;4919478;29;20044;-94
2024/01/12 02:09:13;;;;;;;37.60;13.70;;;0.30;99.90;;;;;;4921126;29;20091;-94
2024/01/12 02:11:39;;;;;;;42.27;14.13;;;2.50;99.90;;;;;;4921341;29;20043;-94
2024/01/12 02:14:07;;;;;;;44.00;14.60;;;0.10;99.90;;;;;;4919856;29;20043;-92
2024/01/12 02:16:54;;;;;;;37.50;13.00;;;0.40;99.90;;;;;;4921224;29;20075;-94
2024/01/12 02:19:26;;;;;;;28.77;11.50;;;2.50;99.90;;;;;;4920988;29;20062;-94
2024/01/12 02:21:51;;;;;;;32.17;11.97;;;0.50;99.90;;;;;;4920949;29;20047;-93
2024/01/12 02:24:17;;;;;;;39.10;12.43;;;1.60;99.90;;;;;;4920671;29;20523;-94
2024/01/12 02:26:54;;;;;;;31.17;12.07;;;1.20;99.90;;;;;;4918555;29;20071;-93
2024/01/12 02:29:25;;;;;;;35.80;12.50;;;1.10;99.90;;;;;;4917451;29;20047;-94
2024/01/12 02:31:51;;;;;;;32.37;12.47;;;-0.20;99.90;;;;;;4919942;29;20142;-93
2024/01/12 02:34:17;;;;;;;31.97;11.37;;;0.60;99.90;;;;;;4920465;29;20129;-93
2024/01/12 02:36:58;;;;;;;32.83;11.63;;;0.70;99.90;;;;;;4916920;29;20048;-93
2024/01/12 02:39:24;;;;;;;31.13;12.33;;;2.00;99.90;;;;;;4918449;29;20361;-93
2024/01/12 02:42:08;;;;;;;31.97;12.63;;;1.70;99.90;;;;;;4919991;29;20046;-93
2024/01/12 02:44:34;;;;;;;32.83;13.27;;;1.00;99.90;;;;;;4919949;29;20044;-94
2024/01/12 02:47:17;;;;;;;32.60;11.53;;;0.60;99.90;;;;;;4919708;29;20150;-93
2024/01/12 02:49:49;;;;;;;35.60;13.37;;;1.00;99.90;;;;;;4918058;29;20063;-94
2024/01/12 02:52:15;;;;;;;29.40;12.40;;;0.70;99.90;;;;;;4919591;29;20048;-94
2024/01/12 02:54:44;;;;;;;33.03;12.27;;;1.10;99.90;;;;;;4916673;23;20048;-94
2024/01/12 02:57:16;;;;;;;27.57;11.70;;;1.90;99.90;;;;;;4882091;29;20084;-94
2024/01/12 02:59:44;;;;;;;31.77;12.23;;;1.00;99.90;;;;;;4882178;29;20055;-94
2024/01/12 03:02:13;;;;;;;28.67;12.00;;;1.20;99.90;;;;;;4882105;29;20127;-94
2024/01/12 03:05:49;;;;;;;28.00;11.07;;;0.80;99.90;;;;;;4928825;23;20408;-93
2024/01/12 03:08:21;;;;;;;28.15;11.77;;;1.40;99.90;;;;;;4934910;28;20054;-94
2024/01/12 03:10:47;;;;;;;34.33;11.50;;;0.30;99.90;;;;;;4935711;29;20040;-94
2024/01/12 03:13:13;;;;;;;28.17;10.97;;;0.70;99.90;;;;;;4935003;29;20040;-94
2024/01/12 03:15:41;;;;;;;27.47;11.80;;;2.00;99.90;;;;;;4935495;29;20051;-94
2024/01/12 03:18:14;;;;;;;28.50;11.37;;;0.90;99.90;;;;;;4934788;29;20496;-94
2024/01/12 03:20:43;;;;;;;25.73;10.63;;;2.30;99.90;;;;;;4935261;29;20055;-93
2024/01/12 03:23:17;;;;;;;28.83;10.80;;;0.50;99.90;;;;;;4934840;29;20500;-93
2024/01/12 03:25:46;;;;;;;25.70;10.73;;;1.00;99.90;;;;;;4935120;29;20082;-94
2024/01/12 03:28:12;;;;;;;22.77;9.93;;;3.50;99.90;;;;;;4935574;29;20106;-93
2024/01/12 03:30:37;;;;;;;23.07;9.93;;;1.10;99.90;;;;;;4935217;29;20142;-93
2024/01/12 03:33:03;;;;;;;27.70;10.43;;;1.00;99.90;;;;;;4934663;29;20126;-93
2024/01/12 03:35:29;;;;;;;27.40;11.03;;;1.10;99.90;;;;;;4935167;29;20178;-94
2024/01/12 03:38:16;;;;;;;28.50;10.87;;;1.40;99.90;;;;;;4932828;29;20563;-92
2024/01/12 03:40:45;;;;;;;29.07;10.70;;;1.10;99.90;;;;;;4936019;29;20464;-94
2024/01/12 03:43:14;;;;;;;24.33;9.80;;;0.40;99.90;;;;;;4935247;29;20095;-94
2024/01/12 03:46:00;;;;;;;27.13;10.10;;;2.20;99.90;;;;;;4934794;29;20051;-94
2024/01/12 03:48:32;;;;;;;24.53;9.33;;;2.50;99.90;;;;;;4934840;29;20488;-93
2024/01/12 03:50:58;;;;;;;23.63;10.40;;;1.30;99.90;;;;;;4934885;29;20046;-94
2024/01/12 03:53:42;;;;;;;22.93;9.90;;;1.70;99.90;;;;;;5039122;23;20105;-94
2024/01/12 03:57:02;;;;;;;25.87;10.47;;;1.00;99.90;;;;;;4937504;29;20155;-94
2024/01/12 03:59:31;;;;;;;27.23;10.23;;;2.50;99.90;;;;;;4953123;28;20051;-93
2024/01/12 04:02:05;;;;;;;27.60;9.43;;;2.90;99.90;;;;;;4938190;29;20043;-93
2024/01/12 04:04:31;;;;;;;23.77;9.83;;;1.60;99.90;;;;;;4938019;29;20066;-94
2024/01/12 04:07:11;;;;;;;23.47;9.90;;;3.00;99.90;;;;;;4936847;29;20494;-93
2024/01/12 04:09:55;;;;;;;26.70;10.03;;;0.80;99.90;;;;;;4938185;29;20134;-94
2024/01/12 04:12:24;;;;;;;21.25;9.45;;;1.10;99.90;;;;;;4938235;29;20445;-93
2024/01/12 04:14:55;;;;;;;24.40;9.40;;;0.20;99.90;;;;;;4937100;29;20047;-93
2024/01/12 04:17:36;;;;;;;26.53;10.13;;;1.10;99.90;;;;;;4937932;29;20051;-94
2024/01/12 04:20:25;;;;;;;21.43;9.27;;;0.60;99.90;;;;;;4937284;29;20047;-93
2024/01/12 04:23:23;;;;;;;22.53;9.97;;;0.70;99.90;;;;;;4912185;29;20059;-94
2024/01/12 04:26:26;;;;;;;25.30;9.63;;;1.20;99.90;;;;;;4940096;29;20059;-94
2024/01/12 04:29:01;;;;;;;21.95;9.13;;;1.30;99.90;;;;;;4954043;29;20062;-94
2024/01/12 04:31:27;;;;;;;22.70;9.73;;;0.60;99.90;;;;;;4937489;29;20048;-93
2024/01/12 04:33:53;;;;;;;22.37;10.17;;;0.80;99.90;;;;;;4937736;29;20047;-92
2024/01/12 04:36:27;;;;;;;23.43;10.07;;;0.90;99.90;;;;;;4937144;29;20146;-93
2024/01/12 04:39:08;;;;;;;23.20;9.27;;;0.60;99.90;;;;;;4937414;29;20047;-92
2024/01/12 04:41:49;;;;;;;24.80;9.37;;;3.50;99.90;;;;;;4937454;29;20975;-93
2024/01/12 04:44:15;;;;;;;23.67;11.07;;;1.80;99.90;;;;;;4936750;29;20051;-92
2024/01/12 04:46:44;;;;;;;24.40;9.30;;;0.40;99.90;;;;;;4937178;29;20059;-93
2024/01/12 04:49:10;;;;;;;22.93;10.17;;;1.50;99.90;;;;;;4938151;29;20141;-93
2024/01/12 04:51:41;;;;;;;29.57;10.17;;;1.90;99.90;;;;;;4941325;29;20493;-93
2024/01/12 04:54:06;;;;;;;27.33;9.50;;;0.40;99.90;;;;;;4938907;29;20138;-93
2024/01/12 04:56:32;;;;;;;24.40;10.20;;;0.40;99.90;;;;;;4940776;29;20179;-93
2024/01/12 04:58:58;;;;;;;25.53;9.87;;;2.00;99.90;;;;;;4941145;29;20143;-93
2024/01/12 05:01:23;;;;;;;27.00;9.80;;;0.60;99.90;;;;;;4941574;28;20055;-93
2024/01/12 05:03:49;;;;;;;27.57;10.67;;;1.70;99.90;;;;;;4940488;29;20503;-93
2024/01/12 05:06:15;;;;;;;24.73;10.07;;;0.40;99.90;;;;;;4940079;29;20047;-93
2024/01/12 05:08:40;;;;;;;21.40;10.00;;;2.20;99.90;;;;;;4940013;29;20049;-93
2024/01/12 05:11:12;;;;;;;25.70;9.57;;;1.80;99.90;;;;;;4940025;29;20078;-93
2024/01/12 05:13:38;;;;;;;27.47;10.77;;;1.60;99.90;;;;;;4941066;29;20062;-93
2024/01/12 05:16:11;;;;;;;25.53;10.50;;;2.10;99.90;;;;;;4940445;29;20047;-94
2024/01/12 05:18:43;;;;;;;26.58;9.90;;;1.90;99.90;;;;;;4940876;29;20117;-93
2024/01/12 05:21:21;;;;;;;24.33;9.23;;;1.90;99.90;;;;;;4940850;29;20055;-93
2024/01/12 05:23:59;;;;;;;21.65;9.30;;;0.40;99.90;;;;;;4940457;29;20047;-95
2024/01/12 05:26:24;;;;;;;23.27;10.27;;;0.40;99.90;;;;;;4941158;29;20406;-94
2024/01/12 05:28:52;;;;;;;24.43;8.90;;;0.40;99.90;;;;;;4940742;29;20051;-93
2024/01/12 05:31:18;;;;;;;21.20;9.83;;;0.40;99.90;;;;;;4939945;29;20082;-94
2024/01/12 05:33:53;;;;;;;21.67;10.17;;;0.90;99.90;;;;;;4940912;29;20082;-93
2024/01/12 05:36:28;;;;;;;25.63;9.80;;;1.50;99.90;;;;;;4940298;29;20047;-93
2024/01/12 05:38:53;;;;;;;26.53;9.73;;;2.00;99.90;;;;;;4937306;23;20056;-93
2024/01/12 05:41:24;;;;;;;21.27;9.30;;;2.50;99.90;;;;;;4902225;29;20135;-93
2024/01/12 05:43:50;;;;;;;29.57;9.43;;;1.60;99.90;;;;;;4902436;29;20134;-93
2024/01/12 05:46:17;;;;;;;23.17;9.80;;;0.60;99.90;;;;;;4916881;29;20135;-94
2024/01/12 05:48:49;;;;;;;22.03;9.30;;;1.90;99.90;;;;;;4903007;29;20131;-93
2024/01/12 05:51:21;;;;;;;22.97;9.47;;;1.90;99.90;;;;;;4923192;23;20086;-93
2024/01/12 05:53:59;;;;;;;21.87;9.50;;;2.20;99.90;;;;;;4921805;29;20433;-93
2024/01/12 05:56:25;;;;;;;23.63;10.40;;;2.10;99.90;;;;;;4921082;29;20051;-93
2024/01/12 05:59:06;;;;;;;21.13;9.00;;;0.60;99.90;;;;;;4920432;29;20410;-94
2024/01/12 06:01:50;;;;;;;20.23;8.40;;;0.50;99.90;;;;;;4920075;29;20408;-93
2024/01/12 06:04:22;;;;;;;;;;;1.80;99.90;;;;;;4921537;29;20130;-92
2024/01/12 06:06:55;;;;;;;24.97;8.10;;;1.30;99.90;;;;;;4920258;29;19929;-93
2024/01/12 06:09:30;;;;;;;24.23;7.78;;;0.80;99.90;;;;;;4921237;29;20444;-94
2024/01/12 06:12:14;;;;;;;19.83;7.90;;;2.30;99.90;;;;;;4920968;29;20051;-93
2024/01/12 06:14:39;;;;;;;19.85;7.78;;;2.90;99.90;;;;;;4920185;29;20134;-94
2024/01/12 06:17:26;;;;;;;19.23;8.00;;;1.10;99.90;;;;;;4920623;29;20529;-93
2024/01/12 06:22:56;;;;;;;24.00;8.47;;;0.50;99.90;;;;;;4920968;29;20067;-93
2024/01/12 06:25:23;;;;;;;22.13;8.00;;;1.00;99.90;;;;;;4920786;29;20067;-93
2024/01/12 06:27:58;;;;;;;21.63;7.60;;;3.60;99.90;;;;;;4919078;29;20114;-93
2024/01/12 06:30:44;;;;;;;23.43;8.70;;;2.50;99.90;;;;;;4919796;29;20046;-93
2024/01/12 06:33:17;;;;;;;22.87;8.43;;;1.00;99.90;;;;;;4936207;29;20249;-93
2024/01/12 06:35:45;;;;;;;21.50;8.30;;;1.00;99.90;;;;;;4920237;29;20115;-92
2024/01/12 06:38:27;;;;;;;18.57;8.23;;;0.60;99.90;;;;;;4919461;29;20503;-93
2024/01/12 06:40:56;;;;;;;21.67;8.60;;;1.90;99.90;;;;;;4919306;29;20048;-93
2024/01/12 06:43:23;;;;;;;22.37;9.23;;;1.50;99.90;;;;;;4919682;29;20468;-93
2024/01/12 06:46:05;;;;;;;24.20;8.53;;;3.10;99.90;;;;;;4920132;29;20047;-93
2024/01/12 06:48:34;;;;;;;22.00;8.47;;;1.90;99.90;;;;;;4920008;29;20448;-93
2024/01/12 06:51:02;;;;;;;19.03;8.17;;;3.40;99.90;;;;;;4919161;29;20048;-92
2024/01/12 06:53:44;;;;;;;21.10;8.17;;;1.40;99.90;;;;;;4920940;29;20051;-92
2024/01/12 06:56:18;;;;;;;24.60;9.30;;;2.70;99.90;;;;;;4919834;29;20079;-93
2024/01/12 06:58:44;;;;;;;23.87;8.33;;;0.80;99.90;;;;;;4920068;29;20054;-92
2024/01/12 07:01:21;;;;;;;24.43;9.53;;;1.30;99.90;;;;;;4919655;29;20051;-93
2024/01/12 07:04:08;;;;;;;23.93;8.40;;;0.70;99.90;;;;;;4918996;29;20070;-93
2024/01/12 07:06:33;;;;;;;23.10;9.10;;;1.40;99.90;;;;;;4936008;29;20094;-90
2024/01/12 07:09:11;;;;;;;25.63;8.40;;;0.90;99.90;;;;;;4918634;29;20500;-89
2024/01/12 07:11:50;;;;;;;22.53;8.07;;;1.40;99.90;;;;;;4919322;29;20058;-88
2024/01/12 07:14:24;;;;;;;21.80;7.67;;;1.20;99.90;;;;;;4936486;29;20044;-87
2024/01/12 07:16:56;;;;;;;25.07;9.03;;;0.90;99.90;;;;;;4919519;29;20135;-89
2024/01/12 07:19:30;;;;;;;22.60;8.80;;;2.00;99.90;;;;;;4919560;29;20126;-90
2024/01/12 07:22:01;;;;;;;23.50;8.70;;;2.10;99.90;;;;;;4919875;29;20080;-92
2024/01/12 07:24:30;;;;;;;26.93;9.47;;;1.70;99.90;;;;;;4918653;29;20052;-92
2024/01/12 07:27:02;;;;;;;25.90;9.27;;;0.90;99.90;;;;;;4919482;29;20051;-93
2024/01/12 07:29:31;;;;;;;25.57;8.40;;;1.10;99.90;;;;;;4919517;29;20118;-92
2024/01/12 07:32:03;;;;;;;24.63;9.10;;;1.10;99.90;;;;;;4919794;29;20055;-92
2024/01/12 07:34:31;;;;;;;21.87;9.20;;;1.10;99.90;;;;;;4919832;29;20054;-90
2024/01/12 07:37:07;;;;;;;25.77;9.77;;;2.80;99.90;;;;;;4918847;29;20043;-92
2024/01/12 07:39:39;;;;;;;23.70;8.40;;;1.00;99.90;;;;;;4919742;29;20075;-90
2024/01/12 07:42:11;;;;;;;26.70;8.80;;;1.90;99.90;;;;;;4917785;29;20118;-91
2024/01/12 07:44:39;;;;;;;24.83;9.00;;;1.40;99.90;;;;;;4917734;29;20187;-90
2024/01/12 07:47:14;;;;;;;24.40;8.77;;;1.30;99.90;;;;;;4918399;29;20043;-90
2024/01/12 07:50:06;;;;;;;32.27;9.17;;;-0.20;99.90;;;;;;4914783;29;20063;-88
2024/01/12 07:52:35;;;;;;;26.13;11.77;;;1.20;99.90;;;;;;4917560;29;20535;-88
2024/01/12 07:55:00;;;;;;;30.27;16.63;;;1.20;99.90;;;;;;4933322;29;20058;-89
2024/01/12 07:57:26;;;;;;;33.70;15.57;;;1.20;99.90;;;;;;4937609;29;20138;-89
2024/01/12 07:59:55;;;;;;;76.30;40.83;;;1.20;99.90;;;;;;4936233;29;20165;-88
2024/01/12 08:02:21;;;;;;;28.73;15.53;;;1.30;99.90;;;;;;4917437;29;20084;-89
2024/01/12 08:04:46;;;;;;;30.80;14.40;;;1.30;99.90;;;;;;4916290;29;20505;-92
2024/01/12 08:07:12;;;;;;;28.80;12.10;;;1.20;99.90;;;;;;4918608;29;20040;-90
2024/01/12 08:09:40;;;;;;;29.53;11.20;;;1.30;99.90;;;;;;4918904;29;20326;-89
2024/01/12 08:12:06;;;;;;;30.47;13.17;;;1.30;99.90;;;;;;4918408;29;20167;-91
2024/01/12 08:14:32;;;;;;;22.97;9.03;;;1.40;99.90;;;;;;4916378;29;20043;-90
2024/01/12 08:16:57;;;;;;;26.87;12.10;;;1.40;99.90;;;;;;4918936;29;20084;-90
2024/01/12 08:19:23;;;;;;;22.67;9.50;;;1.40;99.90;;;;;;4917484;29;20036;-90
2024/01/12 08:21:49;;;;;;;24.83;11.00;;;1.40;99.90;;;;;;4918847;29;20046;-91
2024/01/12 08:24:16;;;;;;;23.47;10.43;;;1.40;99.90;;;;;;4917776;29;20044;-91
2024/01/12 08:26:45;;;;;;;27.20;8.63;;;1.40;99.90;;;;;;4917896;29;20051;-87
2024/01/12 08:29:11;;;;;;;26.77;8.80;;;1.50;99.90;;;;;;5020503;23;20552;-94
2024/01/12 08:31:36;;;;;;;19.33;7.90;;;1.50;99.90;;;;;;4918877;29;20052;-91
2024/01/12 08:34:02;;;;;;;29.33;8.33;;;1.60;99.90;;;;;;4918789;29;20061;-94
2024/01/12 08:36:28;;;;;;;35.90;17.17;;;1.60;99.90;;;;;;4919072;29;20036;-93
2024/01/12 08:38:53;;;;;;;24.63;9.77;;;1.60;99.90;;;;;;4919242;29;20150;-93
2024/01/12 08:41:19;;;;;;;23.07;8.83;;;1.60;99.90;;;;;;4918782;29;20143;-93
2024/01/12 08:43:44;;;;;;;25.07;10.57;;;1.50;99.90;;;;;;4919152;29;20467;-93
2024/01/12 08:46:10;;;;;;;26.70;10.33;;;1.60;99.90;;;;;;4920891;29;20043;-94
2024/01/12 08:48:35;;;;;;;23.73;9.93;;;1.60;99.90;;;;;;4928664;23;20043;-93
2024/01/12 08:51:01;;;;;;;26.33;9.80;;;1.80;99.90;;;;;;4921322;23;20060;-93
2024/01/12 08:53:27;;;;;;;24.37;9.40;;;1.60;99.90;;;;;;4899557;29;20048;-94
2024/01/12 08:55:53;;;;;;;31.27;10.33;;;1.70;99.90;;;;;;4899271;29;20040;-89
2024/01/12 08:58:19;;;;;;;27.93;11.60;;;1.70;99.90;;;;;;4899118;29;20107;-88
2024/01/12 09:00:44;;;;;;;27.27;9.40;;;1.70;99.90;;;;;;4916343;29;20039;-89
2024/01/12 09:03:10;;;;;;;23.70;8.90;;;1.70;99.90;;;;;;4898742;29;20112;-90
2024/01/12 09:05:36;;;;;;;20.10;10.13;;;1.70;99.90;;;;;;4899205;29;20485;-89
2024/01/12 09:08:01;;;;;;;34.77;15.37;;;1.70;99.90;;;;;;4898870;29;20040;-90
2024/01/12 09:10:28;;;;;;;36.83;16.33;;;1.70;99.90;;;;;;4898405;29;20044;-90
2024/01/12 09:12:54;;;;;;;33.37;15.77;;;1.70;99.90;;;;;;4899171;29;20509;-90
2024/01/12 09:15:19;;;;;;;23.37;9.30;;;1.70;99.90;;;;;;4899156;29;20084;-89
2024/01/12 09:17:45;;;;;;;24.23;9.83;;;1.70;99.90;;;;;;4898806;29;20052;-90
2024/01/12 09:20:11;;;;;;;23.77;9.30;;;1.70;99.90;;;;;;4899330;29;20056;-89
2024/01/12 09:22:36;;;;;;;22.27;9.17;;;1.80;99.90;;;;;;4898451;29;20408;-89
2024/01/12 09:25:02;;;;;;;23.60;9.83;;;1.70;99.90;;;;;;4898605;29;20048;-90
2024/01/12 09:27:28;;;;;;;21.50;8.73;;;1.80;99.90;;;;;;4898496;29;20059;-92
2024/01/12 09:29:54;;;;;;;20.10;7.67;;;2.70;99.90;;;;;;4898340;29;20044;-89
2024/01/12 09:32:19;;;;;;;25.27;8.40;;;1.80;99.90;;;;;;4899325;29;20063;-90
2024/01/12 09:34:45;;;;;;;26.53;8.80;;;3.20;99.90;;;;;;4898941;29;20040;-90
2024/01/12 09:37:11;;;;;;;22.60;9.13;;;2.80;99.90;;;;;;4900722;29;20138;-89
2024/01/12 09:39:36;;;;;;;27.17;9.47;;;1.80;99.90;;;;;;4902510;29;20071;-89
2024/01/12 09:42:04;;;;;;;22.30;9.47;;;1.80;99.90;;;;;;4901823;29;20405;-90
2024/01/12 09:44:37;;;;;;;21.43;8.00;;;1.90;99.90;;;;;;4901328;29;20059;-89
2024/01/12 09:47:03;;;;;;;24.27;9.20;;;1.90;99.90;;;;;;4902044;29;20055;-89
2024/01/12 09:49:31;;;;;;;24.20;8.97;;;1.90;99.90;;;;;;4902055;29;20060;-89
2024/01/12 09:52:03;;;;;;;22.70;9.50;;;1.90;99.90;;;;;;4900572;29;20051;-89
2024/01/12 09:54:29;;;;;;;34.13;18.63;;;1.90;99.90;;;;;;4883230;29;20048;-90
2024/01/12 09:56:58;;;;;;;22.87;9.80;;;2.00;99.90;;;;;;4883056;29;20134;-89
2024/01/12 09:59:25;;;;;;;31.17;13.50;;;2.00;99.90;;;;;;4882880;29;20044;-87
2024/01/12 10:01:51;;;;;;;33.10;16.53;;;2.10;99.90;;;;;;4883494;29;20617;-87
2024/01/12 10:04:20;;;;;;;23.53;11.43;;;2.30;99.90;;;;;;4883716;29;20075;-87
2024/01/12 10:06:45;;;;;;;24.37;12.97;;;3.80;99.90;;;;;;4882279;29;20424;-88
2024/01/12 10:09:11;;;;;;;26.70;11.63;;;2.20;99.90;;;;;;4885048;29;20048;-87
2024/01/12 10:11:37;;;;;;;28.07;10.67;;;2.20;99.90;;;;;;4902293;29;20080;-88
2024/01/12 10:14:04;;;;;;;32.13;15.17;;;2.20;99.90;;;;;;4899993;29;20052;-87
2024/01/12 10:16:29;;;;;;;24.97;11.77;;;2.20;99.90;;;;;;4901487;29;20139;-87
2024/01/12 10:18:57;;;;;;;28.50;16.17;;;2.20;99.90;;;;;;4900441;29;20139;-87
2024/01/12 10:21:24;;;;;;;23.43;11.17;;;2.30;99.90;;;;;;4901412;29;20503;-90
2024/01/12 10:23:51;;;;;;;27.93;10.83;;;2.30;99.90;;;;;;4901721;29;20441;-90
2024/01/12 10:26:17;;;;;;;24.60;10.70;;;2.40;99.90;;;;;;4900840;29;20044;-90
2024/01/12 10:28:44;;;;;;;22.13;10.10;;;2.40;99.90;;;;;;4901430;29;20044;-90
2024/01/12 10:31:10;;;;;;;27.17;11.17;;;2.40;99.90;;;;;;4901002;29;20044;-90
2024/01/12 10:33:36;;;;;;;24.30;11.33;;;2.40;99.90;;;;;;4900581;29;20044;-89
2024/01/12 10:36:18;;;;;;;25.10;10.00;;;2.50;99.90;;;;;;4900809;29;20103;-90
2024/01/12 10:38:45;;;;;;;19.07;7.43;;;2.50;99.90;;;;;;4901318;29;20474;-90
2024/01/12 10:41:13;;;;;;;20.47;7.40;;;2.60;99.90;;;;;;4901157;29;20040;-91
2024/01/12 10:43:40;;;;;;;22.13;7.70;;;2.60;99.90;;;;;;4900741;29;20056;-90
2024/01/12 10:46:16;;;;;;;22.70;8.03;;;2.70;99.90;;;;;;4900687;29;20047;-90
2024/01/12 10:48:53;;;;;;;22.60;7.90;;;2.70;99.90;;;;;;4900040;29;20044;-90
2024/01/12 10:51:21;;;;;;;23.17;11.20;;;2.70;99.90;;;;;;4901086;29;20060;-90
2024/01/12 10:53:59;;;;;;;26.00;10.50;;;2.70;99.90;;;;;;4901453;29;20095;-91
2024/01/12 10:56:25;;;;;;;90.57;32.53;;;2.70;99.90;;;;;;4900900;29;20048;-91
2024/01/12 10:58:52;;;;;;;121.90;55.13;;;4.20;99.90;;;;;;4900788;29;20327;-90
2024/01/12 11:01:18;;;;;;;30.03;18.60;;;2.80;99.90;;;;;;4899762;29;20067;-90
2024/01/12 11:03:45;;;;;;;23.63;11.20;;;2.80;99.90;;;;;;4900939;29;20055;-91
2024/01/12 11:06:13;;;;;;;24.90;10.87;;;2.80;99.90;;;;;;4900359;29;20044;-90
2024/01/12 11:08:40;;;;;;;25.17;15.37;;;2.90;99.90;;;;;;4900350;29;20063;-91
2024/01/12 11:11:07;;;;;;;20.70;8.27;;;2.90;99.90;;;;;;4900831;29;20051;-91
2024/01/12 11:13:34;;;;;;;18.67;7.93;;;3.00;99.90;;;;;;4901092;29;20062;-91
2024/01/12 11:16:00;;;;;;;18.30;7.13;;;3.00;99.90;;;;;;4892790;29;20049;-90
2024/01/12 11:18:27;;;;;;;20.37;7.90;;;3.00;99.90;;;;;;4882632;29;20072;-92
2024/01/12 11:21:02;;;;;;;19.40;9.10;;;3.10;99.90;;;;;;4897143;29;20041;-89
2024/01/12 11:23:28;;;;;;;22.33;8.70;;;3.10;99.90;;;;;;4880961;29;20044;-90
2024/01/12 11:25:55;;;;;;;17.40;6.77;;;3.20;99.90;;;;;;4881930;29;20543;-90
2024/01/12 11:28:23;;;;;;;17.90;7.27;;;3.20;99.90;;;;;;4881571;29;20055;-91
2024/01/12 11:30:50;;;;;;;16.70;6.37;;;3.30;99.90;;;;;;4900091;29;20048;-91
2024/01/12 11:33:21;;;;;;;15.50;5.43;;;3.40;99.90;;;;;;4900569;29;20139;-89
2024/01/12 11:35:54;;;;;;;21.37;8.77;;;3.40;99.90;;;;;;4900840;29;20123;-92
2024/01/12 11:38:19;;;;;;;13.60;5.60;;;3.50;99.90;;;;;;4900344;29;20047;-93
2024/01/12 11:40:51;;;;;;;19.17;6.73;;;4.90;99.90;;;;;;4900243;29;20363;-93
2024/01/12 11:43:23;;;;;;;16.83;6.10;;;3.20;99.90;;;;;;4899751;29;20158;-92
2024/01/12 11:45:52;;;;;;;20.57;5.63;;;3.90;99.90;;;;;;4900359;29;20051;-92
2024/01/12 11:48:18;;;;;;;17.10;5.00;;;3.80;99.90;;;;;;4912045;23;20048;-90
2024/01/12 11:51:49;;;;;;;17.73;5.53;;;3.50;99.90;;;;;;4937517;29;20059;-93
2024/01/12 11:54:18;;;;;;;16.37;4.50;;;4.60;99.90;;;;;;4937803;28;20520;-91
2024/01/12 11:56:52;;;;;;;14.33;4.20;;;3.50;99.90;;;;;;4938158;29;20396;-93
2024/01/12 11:59:18;;;;;;;17.33;4.17;;;5.20;99.90;;;;;;4936274;29;20181;-92
2024/01/12 12:01:44;;;;;;;15.27;4.50;;;4.50;99.90;;;;;;4937830;28;20079;-91
2024/01/12 12:04:19;;;;;;;16.47;4.60;;;2.90;99.90;;;;;;4938125;28;20134;-91
2024/01/12 12:06:48;;;;;;;19.87;6.13;;;4.60;99.90;;;;;;4937611;29;20051;-89
2024/01/12 12:09:20;;;;;;;20.47;8.97;;;5.90;99.90;;;;;;4938001;29;20055;-94
2024/01/12 12:11:48;;;;;;;18.27;5.87;;;4.30;99.90;;;;;;4937488;29;20448;-89
2024/01/12 12:14:29;;;;;;;24.63;5.57;;;4.00;99.90;;;;;;4954391;28;20443;-91
2024/01/12 12:17:00;;;;;;;22.33;11.07;;;3.70;99.90;;;;;;4937314;29;20058;-90
2024/01/12 12:19:29;;;;;;;29.77;14.90;;;4.80;99.90;;;;;;4937344;29;20195;-93
2024/01/12 12:22:02;;;;;;;23.80;13.23;;;3.80;99.90;;;;;;4937362;29;20381;-91
2024/01/12 12:24:32;;;;;;;28.77;19.58;;;5.40;99.90;;;;;;4937401;29;20106;-91
2024/01/12 12:27:07;;;;;;;30.83;17.90;;;3.80;99.90;;;;;;4937133;29;20510;-90
2024/01/12 12:29:35;;;;;;;28.57;11.73;;;4.60;99.90;;;;;;4937935;29;20407;-92
2024/01/12 12:32:14;;;;;;;44.90;25.40;;;5.50;99.90;;;;;;4937361;29;20399;-93
2024/01/12 12:34:46;;;;;;;41.93;24.10;;;6.00;99.90;;;;;;4937754;29;20043;-93
2024/01/12 12:37:15;;;;;;;23.17;12.53;;;5.40;99.90;;;;;;4938104;29;20049;-94
2024/01/12 12:39:44;;;;;;;20.20;5.20;;;4.20;99.90;;;;;;4937259;29;20070;-93
2024/01/12 12:42:13;;;;;;;14.60;4.07;;;4.80;99.90;;;;;;4937395;29;20046;-92
2024/01/12 12:44:45;;;;;;;20.80;6.30;;;4.50;99.90;;;;;;4936541;28;20047;-91
2024/01/12 12:47:22;;;;;;;15.43;4.47;;;4.10;99.90;;;;;;4935864;29;20043;-91
2024/01/12 12:50:00;;;;;;;17.50;4.33;;;3.80;99.90;;;;;;4936648;29;20515;-92
2024/01/12 12:52:28;;;;;;;14.93;3.80;;;4.70;99.90;;;;;;4937718;28;20059;-90
2024/01/12 12:55:07;;;;;;;22.07;5.93;;;5.40;99.90;;;;;;4936124;29;20043;-91
2024/01/12 12:57:45;;;;;;;22.53;5.73;;;4.00;99.90;;;;;;4936464;29;20411;-88
2024/01/12 13:00:19;;;;;;;19.87;4.33;;;3.90;99.90;;;;;;4937067;29;20055;-95
2024/01/12 13:02:50;;;;;;;17.60;4.13;;;3.70;99.90;;;;;;4937140;29;20043;-95